Time;durP1;ratioP1;P1;durP2;ratioP2;P2;SDS_P1;SDS_P2;PMS_P1;PMS_P2;Temp;Humidity;BMP_temperature;BMP_pressure;BME280_temperature;BME280_humidity;BME280_pressure;Samples;Min_cycle;Max_cycle;Signal;HPM_P1;HPM_P2
2022/10/17 00:01:02;;;;;;;1.40;1.40;;;;;;;16.34;63.23;101682.72;4905750;28;97301;-48
2022/10/17 00:03:27;;;;;;;1.60;1.50;;;;;;;16.32;63.21;101688.78;4906304;28;97456;-48
2022/10/17 00:05:53;;;;;;;2.30;1.80;;;;;;;16.29;63.20;101698.13;4905449;28;96931;-48
2022/10/17 00:08:18;;;;;;;1.40;1.30;;;;;;;16.32;63.23;101691.56;4903392;28;96812;-47
2022/10/17 00:10:44;;;;;;;1.77;1.67;;;;;;;16.32;63.20;101697.13;4905107;28;96804;-48
2022/10/17 00:13:10;;;;;;;2.40;1.40;;;;;;;16.33;63.19;101701.44;4906612;28;97692;-48
2022/10/17 00:15:36;;;;;;;1.80;1.70;;;;;;;16.33;63.15;101706.22;4906285;28;97771;-48
2022/10/17 00:18:02;;;;;;;1.60;1.50;;;;;;;16.33;63.12;101711.78;4903631;28;96820;-46
2022/10/17 00:20:29;;;;;;;5.07;1.63;;;;;;;16.32;63.34;101713.78;4906055;28;97460;-48
2022/10/17 00:22:55;;;;;;;4.73;1.83;;;;;;;16.32;63.03;101704.69;4908177;28;96829;-48
2022/10/17 00:25:20;;;;;;;4.00;1.73;;;;;;;16.28;63.19;101704.97;4906530;28;96611;-48
2022/10/17 00:27:45;;;;;;;2.60;1.53;;;;;;;16.27;63.07;101711.75;4901172;28;97141;-48
2022/10/17 00:30:13;;;;;;;2.10;1.60;;;;;;;16.24;63.17;101710.00;4901940;28;97416;-48
2022/10/17 00:32:39;;;;;;;4.23;1.50;;;;;;;16.20;63.03;101703.97;4903374;28;97361;-48
2022/10/17 00:35:05;;;;;;;1.50;1.33;;;;;;;16.18;63.10;101712.06;4907273;28;98541;-48
2022/10/17 00:37:31;;;;;;;2.60;1.20;;;;;;;16.15;62.92;101718.59;4908561;28;97905;-48
2022/10/17 00:39:57;;;;;;;4.93;1.90;;;;;;;16.13;63.23;101712.03;4908317;28;97385;-48
2022/10/17 00:42:23;;;;;;;1.60;1.50;;;;;;;16.11;63.15;101695.88;4909695;28;96891;-48
2022/10/17 00:44:49;;;;;;;1.77;1.40;;;;;;;16.10;63.34;101708.25;4909070;28;97102;-49
2022/10/17 00:47:18;;;;;;;5.90;1.57;;;;;;;16.08;63.23;101701.69;4908219;28;97716;-48
2022/10/17 00:49:44;;;;;;;3.30;1.70;;;;;;;16.04;63.15;101701.19;4909805;28;97440;-48
2022/10/17 00:52:20;;;;;;;1.53;1.43;;;;;;;16.02;63.34;101698.16;4915078;28;97328;-48
2022/10/17 00:54:50;;;;;;;1.90;1.53;;;;;;;15.96;63.28;101684.28;4908999;28;97198;-48
2022/10/17 00:57:16;;;;;;;1.43;1.33;;;;;;;15.94;63.52;101700.69;4907569;28;97021;-48
2022/10/17 00:59:43;;;;;;;1.40;1.30;;;;;;;15.92;63.29;101694.88;4908217;28;97032;-47
2022/10/17 01:02:14;;;;;;;2.20;1.93;;;;;;;15.90;63.38;101697.38;4907655;28;97368;-47
2022/10/17 01:04:46;;;;;;;1.70;1.60;;;;;;;15.91;63.49;101695.38;4904844;28;97449;-47
2022/10/17 01:07:11;;;;;;;1.50;1.40;;;;;;;15.90;63.35;101686.28;4907369;28;98612;-47
2022/10/17 01:09:38;;;;;;;1.73;1.63;;;;;;;15.93;63.36;101690.06;4910206;28;98527;-47
2022/10/17 01:12:28;;;;;;;1.30;1.20;;;;;;;15.94;63.74;101697.16;4909115;28;97158;-47
2022/10/17 01:15:12;;;;;;;1.53;1.43;;;;;;;15.94;63.93;101709.00;4908061;28;100422;-47
2022/10/17 01:17:42;;;;;;;1.40;1.10;;;;;;;15.96;63.52;101711.28;4908738;28;98085;-47
2022/10/17 01:20:28;;;;;;;1.50;1.43;;;;;;;15.99;64.09;101707.50;4911132;28;97340;-47
2022/10/17 01:23:10;;;;;;;1.23;1.23;;;;;;;16.02;63.53;101703.69;4907978;28;96965;-47
2022/10/17 01:25:53;;;;;;;1.87;1.57;;;;;;;16.04;64.08;101709.50;4908769;28;97149;-47
2022/10/17 01:28:22;;;;;;;1.90;1.80;;;;;;;16.04;63.62;101703.94;4908263;28;97161;-46
2022/10/17 01:31:02;;;;;;;1.20;1.20;;;;;;;16.06;63.85;101709.75;4908442;28;97231;-47
2022/10/17 01:33:36;;;;;;;2.70;1.57;;;;;;;16.08;63.69;101710.78;4906277;28;97403;-47
2022/10/17 01:36:22;;;;;;;1.70;1.60;;;;;;;16.09;64.28;101714.31;4908639;28;100384;-47
2022/10/17 01:38:52;;;;;;;4.00;1.57;;;;;;;16.08;63.69;101705.22;4910053;28;101557;-47
2022/10/17 01:41:34;;;;;;;1.20;1.20;;;;;;;16.08;64.10;101710.78;4906956;28;97245;-47
2022/10/17 01:44:21;;;;;;;2.20;1.50;;;;;;;16.05;64.33;101699.94;4910833;28;97077;-46
2022/10/17 01:46:53;;;;;;;2.00;1.50;;;;;;;16.05;63.82;101700.69;4908100;28;100520;-49
2022/10/17 01:49:24;;;;;;;1.70;1.30;;;;;;;16.04;63.80;101698.41;4907106;28;97407;-47
2022/10/17 01:52:01;;;;;;;2.87;1.47;;;;;;;16.01;63.94;101702.94;4907617;28;97187;-47
2022/10/17 01:54:49;;;;;;;1.80;1.23;;;;;;;16.02;63.86;101698.16;4907668;28;98942;-47
2022/10/17 01:57:40;;;;;;;2.30;1.27;;;;;;;15.98;64.11;101692.88;4908601;28;100735;-47
2022/10/17 02:00:10;;;;;;;1.60;1.50;;;;;;;15.97;63.69;101680.22;4902016;28;100289;-47
2022/10/17 02:02:36;;;;;;;1.37;1.30;;;;;;;15.94;63.82;101681.25;4905592;28;97074;-47
2022/10/17 02:05:03;;;;;;;1.47;1.37;;;;;;;15.93;63.68;101673.41;4907024;28;97027;-47
2022/10/17 02:07:28;;;;;;;1.30;1.30;;;;;;;15.90;63.75;101672.41;4907865;28;98052;-47
2022/10/17 02:09:54;;;;;;;2.83;1.10;;;;;;;15.87;63.66;101669.88;4910440;28;96952;-47
2022/10/17 02:12:28;;;;;;;1.50;1.40;;;;;;;15.84;63.88;101662.56;4908571;28;96956;-47
2022/10/17 02:15:25;;;;;;;4.87;1.80;;;;;;;15.78;64.01;101662.56;4909614;28;96924;-47
2022/10/17 02:18:18;;;;;;;5.87;1.60;;;;;;;15.71;64.17;101661.06;4907331;28;102479;-47
2022/10/17 02:20:55;;;;;;;2.60;1.30;;;;;;;15.70;63.87;101656.75;4901159;28;101734;-47
2022/10/17 02:23:29;;;;;;;2.87;1.90;;;;;;;15.66;63.78;101649.97;4907189;28;97286;-47
2022/10/17 02:26:19;;;;;;;1.40;1.30;;;;;;;15.64;63.85;101653.22;4909448;28;97101;-47
2022/10/17 02:29:12;;;;;;;2.40;1.67;;;;;;;15.60;64.03;101644.41;4907239;28;102066;-47
2022/10/17 02:31:47;;;;;;;4.70;1.10;;;;;;;15.57;63.95;101642.63;4904463;28;102118;-47
2022/10/17 02:34:26;;;;;;;2.50;1.47;;;;;;;15.54;63.85;101637.34;4905624;28;97294;-47
2022/10/17 02:36:56;;;;;;;2.20;1.23;;;;;;;15.50;63.85;101634.81;4903643;28;96833;-47
2022/10/17 02:39:23;;;;;;;1.53;1.43;;;;;;;15.48;63.78;101633.81;4907766;28;100622;-47
2022/10/17 02:41:51;;;;;;;3.43;1.43;;;;;;;15.47;63.78;101644.13;4904862;28;97343;-47
2022/10/17 02:44:16;;;;;;;1.50;1.40;;;;;;;15.46;63.88;101648.19;4905791;28;98279;-47
2022/10/17 02:46:49;;;;;;;2.53;1.70;;;;;;;15.43;63.83;101654.72;4905675;28;97034;-47
2022/10/17 02:49:32;;;;;;;3.70;1.10;;;;;;;15.38;63.75;101644.34;4906688;28;98588;-47
2022/10/17 02:52:19;;;;;;;3.27;1.40;;;;;;;15.35;64.21;101641.81;4904744;28;97419;-47
2022/10/17 02:54:51;;;;;;;3.00;1.60;;;;;;;15.32;63.85;101648.34;4907550;28;97082;-47
2022/10/17 02:57:39;;;;;;;1.73;1.27;;;;;;;15.30;64.14;101637.00;4903627;28;97116;-48
2022/10/17 03:00:09;;;;;;;1.77;1.10;;;;;;;15.28;63.88;101631.22;4903368;28;97381;-47
2022/10/17 03:02:44;;;;;;;8.53;1.50;;;;;;;15.27;64.00;101633.22;4904157;28;97034;-47
2022/10/17 03:05:12;;;;;;;1.87;1.67;;;;;;;15.26;63.81;101633.72;4906328;28;97394;-47
2022/10/17 03:07:37;;;;;;;4.53;1.13;;;;;;;15.24;63.81;101630.69;4901701;28;97300;-47
2022/10/17 03:10:03;;;;;;;1.37;1.33;;;;;;;15.22;63.85;101627.69;4905623;28;98734;-47
2022/10/17 03:12:29;;;;;;;2.10;1.40;;;;;;;15.21;63.88;101624.13;4904346;28;97046;-47
2022/10/17 03:14:54;;;;;;;16.13;1.23;;;;;;;15.19;63.83;101634.97;4905204;28;97392;-47
2022/10/17 03:17:19;;;;;;;2.10;1.10;;;;;;;15.18;63.73;101629.94;4904641;28;98051;-47
2022/10/17 03:19:45;;;;;;;2.30;1.20;;;;;;;15.17;63.86;101636.72;4907447;28;109476;-47
2022/10/17 03:22:11;;;;;;;1.17;1.07;;;;;;;15.17;63.84;101643.03;4905726;28;97232;-47
2022/10/17 03:24:36;;;;;;;5.50;1.30;;;;;;;15.16;63.87;101640.78;4906390;28;96733;-47
2022/10/17 03:27:01;;;;;;;3.43;1.30;;;;;;;15.16;63.85;101638.00;4908292;28;97086;-47
2022/10/17 03:29:26;;;;;;;2.63;1.53;;;;;;;15.13;63.84;101645.28;4904355;28;97492;-47
2022/10/17 03:31:52;;;;;;;1.60;1.50;;;;;;;15.11;64.00;101649.81;4904686;28;109003;-47
2022/10/17 03:34:17;;;;;;;1.20;1.10;;;;;;;15.10;64.04;101648.28;4900546;28;96815;-48
2022/10/17 03:36:43;;;;;;;5.17;1.03;;;;;;;15.12;63.98;101646.53;4905156;28;97394;-47
2022/10/17 03:39:09;;;;;;;7.47;1.40;;;;;;;15.11;63.85;101649.81;4906515;28;98061;-47
2022/10/17 03:41:34;;;;;;;2.70;1.30;;;;;;;15.09;63.76;101657.88;4903140;28;106529;-47
2022/10/17 03:43:59;;;;;;;0.80;0.80;;;;;;;15.08;63.89;101640.47;4907558;28;96932;-48
2022/10/17 03:46:25;;;;;;;1.53;1.40;;;;;;;15.06;63.72;101639.47;4906034;28;97529;-47
2022/10/17 03:48:50;;;;;;;1.73;1.20;;;;;;;15.03;63.89;101644.75;4894766;28;98347;-47
2022/10/17 03:51:16;;;;;;;1.97;1.30;;;;;;;15.00;64.00;101645.75;4895864;28;97812;-47
2022/10/17 03:53:41;;;;;;;1.27;1.27;;;;;;;14.99;63.85;101644.25;4903073;28;101434;-47
2022/10/17 03:56:36;;;;;;;7.13;1.57;;;;;;;14.93;64.49;101646.25;4905356;28;99735;-47
2022/10/17 03:59:01;;;;;;;1.33;1.30;;;;;;;14.91;63.94;101654.28;4893425;28;103141;-47
2022/10/17 04:01:27;;;;;;;1.20;1.10;;;;;;;14.89;64.15;101653.28;4896952;28;97281;-47
2022/10/17 04:03:54;;;;;;;3.27;1.23;;;;;;;14.86;64.07;101646.72;4906141;28;97183;-47
2022/10/17 04:06:20;;;;;;;2.00;1.17;;;;;;;14.84;64.22;101649.22;4906149;28;96960;-48
2022/10/17 04:08:46;;;;;;;1.33;1.30;;;;;;;14.83;64.18;101642.16;4905290;28;96836;-47
2022/10/17 04:11:15;;;;;;;1.53;0.90;;;;;;;14.81;64.15;101647.44;4906281;28;98075;-47
2022/10/17 04:13:41;;;;;;;3.60;1.07;;;;;;;14.82;64.22;101650.97;4909084;28;97159;-47
2022/10/17 04:16:10;;;;;;;3.20;1.30;;;;;;;14.82;64.17;101654.50;4907754;28;96913;-47
2022/10/17 04:18:36;;;;;;;4.17;1.43;;;;;;;14.80;64.14;101656.25;4908417;28;97189;-47
2022/10/17 04:21:03;;;;;;;4.77;1.10;;;;;;;14.82;64.06;101656.50;4909624;28;97032;-47
2022/10/17 04:23:28;;;;;;;2.13;0.97;;;;;;;14.81;64.21;101660.53;4911181;28;96705;-47
2022/10/17 04:25:59;;;;;;;4.73;0.90;;;;;;;14.83;64.19;101653.22;4909111;28;97400;-47
2022/10/17 04:28:26;;;;;;;4.83;2.23;;;;;;;14.84;64.09;101648.47;4908221;28;97291;-47
2022/10/17 04:31:05;;;;;;;2.33;1.13;;;;;;;14.84;64.30;101643.69;4908194;28;97127;-47
2022/10/17 04:33:31;;;;;;;2.90;1.53;;;;;;;14.82;64.19;101642.66;4907286;28;97169;-47
2022/10/17 04:36:11;;;;;;;1.03;1.03;;;;;;;14.86;64.40;101651.47;4907337;28;97282;-47
2022/10/17 04:38:37;;;;;;;4.67;1.43;;;;;;;14.86;64.35;101641.16;4908183;28;101655;-47
2022/10/17 04:41:06;;;;;;;1.43;1.17;;;;;;;14.87;64.11;101639.91;4905865;28;97354;-47
2022/10/17 04:43:34;;;;;;;3.13;1.50;;;;;;;14.86;64.08;101645.94;4909101;28;97124;-47
2022/10/17 04:46:06;;;;;;;13.73;1.20;;;;;;;14.84;64.20;101637.38;4910736;28;96860;-47
2022/10/17 04:48:32;;;;;;;1.23;1.00;;;;;;;14.82;64.13;101648.97;4908035;28;98532;-47
2022/10/17 04:51:03;;;;;;;2.10;1.43;;;;;;;14.81;64.23;101647.44;4906841;28;98490;-46
2022/10/17 04:53:31;;;;;;;2.60;1.30;;;;;;;14.80;64.22;101645.16;4908610;28;97251;-47
2022/10/17 04:55:56;;;;;;;4.03;1.50;;;;;;;14.79;64.19;101644.41;4907465;28;97069;-47
2022/10/17 04:58:21;;;;;;;1.83;1.10;;;;;;;14.79;64.23;101635.34;4909304;28;96684;-47
2022/10/17 05:00:47;;;;;;;1.03;1.03;;;;;;;14.78;64.47;101634.59;4908073;28;96769;-47
2022/10/17 05:03:13;;;;;;;3.63;1.47;;;;;;;14.79;64.25;101641.63;4905870;28;97351;-47
2022/10/17 05:05:40;;;;;;;17.53;1.40;;;;;;;14.80;64.21;101643.16;4905154;28;97057;-47
2022/10/17 05:08:07;;;;;;;1.30;1.20;;;;;;;14.80;64.22;101656.25;4909104;28;97758;-47
2022/10/17 05:10:36;;;;;;;1.20;1.10;;;;;;;14.79;64.34;101647.19;4906064;28;100441;-47
2022/10/17 05:13:02;;;;;;;4.23;1.43;;;;;;;14.79;64.43;101649.19;4905126;28;97416;-47
2022/10/17 05:15:27;;;;;;;2.97;1.30;;;;;;;14.78;64.38;101654.00;4908615;28;97223;-47
2022/10/17 05:17:56;;;;;;;3.43;1.30;;;;;;;14.79;64.35;101657.50;4906183;28;113287;-47
2022/10/17 05:20:22;;;;;;;1.87;1.10;;;;;;;14.79;64.28;101661.03;4909748;28;96877;-47
2022/10/17 05:22:47;;;;;;;3.40;1.03;;;;;;;14.78;64.22;101651.22;4907085;28;97511;-47
2022/10/17 05:25:13;;;;;;;2.17;1.30;;;;;;;14.76;64.22;101656.50;4908049;28;97143;-47
2022/10/17 05:27:38;;;;;;;1.67;1.30;;;;;;;14.74;64.24;101645.13;4908818;28;98574;-47
2022/10/17 05:30:04;;;;;;;1.70;1.40;;;;;;;14.75;64.28;101652.19;4908146;28;98183;-47
2022/10/17 05:32:29;;;;;;;1.27;1.17;;;;;;;14.75;64.39;101646.66;4909291;28;97200;-48
2022/10/17 05:34:55;;;;;;;10.63;1.43;;;;;;;14.76;64.39;101650.19;4904744;28;97317;-47
2022/10/17 05:37:20;;;;;;;2.07;1.07;;;;;;;14.77;64.36;101644.16;4908094;28;105123;-47
2022/10/17 05:39:46;;;;;;;1.23;1.13;;;;;;;14.76;64.32;101641.88;4908971;28;98287;-47
2022/10/17 05:42:11;;;;;;;1.47;1.37;;;;;;;14.75;64.69;101643.88;4908450;28;97410;-47
2022/10/17 05:44:38;;;;;;;2.90;1.50;;;;;;;14.78;64.41;101645.69;4909368;28;96817;-47
2022/10/17 05:47:03;;;;;;;1.30;1.30;;;;;;;14.79;64.45;101640.88;4906683;28;98595;-47
2022/10/17 05:49:28;;;;;;;3.47;1.10;;;;;;;14.79;64.40;101654.72;4906759;28;114287;-47
2022/10/17 05:51:54;;;;;;;1.37;1.23;;;;;;;14.79;64.50;101647.19;4907851;28;96823;-47
2022/10/17 05:54:19;;;;;;;2.67;1.20;;;;;;;14.78;64.38;101642.91;4906703;28;106421;-48
2022/10/17 05:56:44;;;;;;;1.40;1.40;;;;;;;14.75;64.43;101638.34;4908554;28;112536;-47
2022/10/17 05:59:10;;;;;;;1.43;1.33;;;;;;;14.72;64.52;101642.09;4909359;28;97705;-47
2022/10/17 06:01:35;;;;;;;2.90;1.50;;;;;;;14.72;64.52;101639.34;4907325;28;97005;-47
2022/10/17 06:04:00;;;;;;;3.63;1.90;;;;;;;14.70;64.50;101641.09;4906846;28;97648;-47
2022/10/17 06:06:26;;;;;;;2.17;1.00;;;;;;;14.72;64.63;101635.81;4903578;28;110549;-47
2022/10/17 06:08:51;;;;;;;3.90;1.30;;;;;;;14.73;64.52;101637.31;4904808;28;97554;-47
2022/10/17 06:11:16;;;;;;;1.20;1.10;;;;;;;14.73;64.63;101637.31;4906211;28;103882;-47
2022/10/17 06:13:42;;;;;;;6.17;1.50;;;;;;;14.73;64.58;101632.56;4903017;28;97413;-47
2022/10/17 06:16:07;;;;;;;4.53;1.50;;;;;;;14.74;64.72;101642.34;4912140;28;97208;-49
2022/10/17 06:18:32;;;;;;;4.10;1.57;;;;;;;14.74;64.68;101656.22;4908519;28;96735;-47
2022/10/17 06:21:06;;;;;;;2.43;1.53;;;;;;;14.76;64.87;101656.50;4907569;28;97319;-47
2022/10/17 06:23:31;;;;;;;5.90;1.63;;;;;;;14.76;64.86;101659.28;4907048;28;97356;-47
2022/10/17 06:25:59;;;;;;;1.90;1.80;;;;;;;14.77;64.73;101648.94;4905284;28;97516;-47
2022/10/17 06:28:24;;;;;;;1.47;1.27;;;;;;;14.78;64.68;101651.22;4906618;28;97327;-47
2022/10/17 06:30:50;;;;;;;1.73;1.63;;;;;;;14.80;64.85;101662.56;4905472;28;97452;-47
2022/10/17 06:33:16;;;;;;;1.73;1.63;;;;;;;14.83;64.86;101664.31;4908927;28;101290;-47
2022/10/17 06:35:42;;;;;;;1.37;1.27;;;;;;;14.84;64.85;101662.31;4907070;28;98110;-47
2022/10/17 06:38:07;;;;;;;4.73;1.40;;;;;;;14.85;64.94;101672.16;4908514;28;97209;-47
2022/10/17 06:40:32;;;;;;;1.53;1.43;;;;;;;14.86;65.28;101666.09;4909646;28;97776;-47
2022/10/17 06:42:58;;;;;;;1.57;1.40;;;;;;;14.88;64.90;101669.13;4904493;28;97125;-47
2022/10/17 06:45:23;;;;;;;1.73;1.40;;;;;;;14.91;65.00;101670.91;4907617;28;98486;-47
2022/10/17 06:47:49;;;;;;;6.33;1.40;;;;;;;14.94;64.92;101652.53;4908024;28;97478;-47
2022/10/17 06:50:14;;;;;;;1.50;1.40;;;;;;;14.97;64.95;101655.06;4905895;28;97503;-47
2022/10/17 06:52:39;;;;;;;1.90;1.47;;;;;;;15.01;65.04;101660.34;4904690;28;97221;-48
2022/10/17 06:55:05;;;;;;;4.00;1.70;;;;;;;15.05;64.96;101669.19;4908238;28;113419;-47
2022/10/17 06:57:31;;;;;;;1.67;1.50;;;;;;;15.08;65.05;101667.44;4906051;28;96918;-47
2022/10/17 06:59:56;;;;;;;1.80;1.40;;;;;;;15.12;65.00;101677.03;4900542;28;96887;-47
2022/10/17 07:02:23;;;;;;;3.20;1.53;;;;;;;15.18;65.04;101683.34;4905655;28;97016;-47
2022/10/17 07:04:48;;;;;;;1.50;1.40;;;;;;;15.21;65.05;101690.69;4909199;28;97179;-47
2022/10/17 07:07:14;;;;;;;1.10;1.00;;;;;;;15.25;65.11;101693.97;4902963;28;96940;-47
2022/10/17 07:09:39;;;;;;;1.27;1.27;;;;;;;15.30;65.06;101698.00;4898827;28;96954;-47
2022/10/17 07:12:07;;;;;;;1.20;1.20;;;;;;;15.34;65.13;101706.84;4910738;28;101696;-47
2022/10/17 07:14:32;;;;;;;2.27;1.60;;;;;;;15.38;65.02;101696.25;4903988;28;96798;-47
2022/10/17 07:16:58;;;;;;;2.17;1.30;;;;;;;15.42;65.09;101691.97;4907341;28;98618;-47
2022/10/17 07:19:24;;;;;;;1.90;1.57;;;;;;;15.48;65.21;101692.03;4907020;28;97221;-47
2022/10/17 07:21:49;;;;;;;2.80;1.37;;;;;;;15.54;65.40;101687.25;4904054;28;96899;-47
2022/10/17 07:24:15;;;;;;;1.50;1.40;;;;;;;15.63;65.33;101695.34;4907075;28;97040;-48
2022/10/17 07:26:40;;;;;;;1.80;1.43;;;;;;;15.73;65.38;101699.38;4903581;28;99759;-47
2022/10/17 07:29:06;;;;;;;1.40;1.30;;;;;;;15.81;65.32;101692.09;4908120;28;97013;-47
2022/10/17 07:31:32;;;;;;;1.53;1.43;;;;;;;15.88;65.42;101696.41;4907462;28;96762;-47
2022/10/17 07:33:59;;;;;;;1.60;1.50;;;;;;;15.94;65.42;101703.47;4905760;28;96823;-47
2022/10/17 07:36:24;;;;;;;1.93;1.53;;;;;;;15.99;65.55;101713.78;4904842;28;98330;-46
2022/10/17 07:38:49;;;;;;;1.60;1.50;;;;;;;16.10;65.66;101710.25;4906001;28;98184;-47
2022/10/17 07:41:15;;;;;;;1.70;1.60;;;;;;;16.19;65.73;101705.22;4901513;28;105791;-46
2022/10/17 07:43:41;;;;;;;2.40;1.77;;;;;;;16.28;65.66;101698.66;4905545;28;97211;-46
2022/10/17 07:46:10;;;;;;;1.97;1.80;;;;;;;16.38;65.80;101700.66;4905546;28;97423;-46
2022/10/17 07:48:35;;;;;;;3.40;1.67;;;;;;;16.51;66.00;101702.19;4902984;28;97626;-46
2022/10/17 07:51:02;;;;;;;5.53;1.40;;;;;;;16.60;65.98;101699.13;4906305;28;97273;-47
2022/10/17 07:53:28;;;;;;;3.80;1.67;;;;;;;16.72;65.83;101711.72;4905779;28;97769;-46
2022/10/17 07:55:53;;;;;;;3.57;1.57;;;;;;;16.82;66.06;101704.66;4906816;28;98382;-46
2022/10/17 07:58:18;;;;;;;1.47;1.37;;;;;;;16.92;66.13;101705.84;4903090;28;97625;-46
2022/10/17 08:00:47;;;;;;;1.47;1.33;;;;;;;17.00;66.04;101702.03;4906300;28;96998;-47
2022/10/17 08:03:12;;;;;;;5.00;1.63;;;;;;;17.09;66.25;101703.78;4902677;28;97098;-46
2022/10/17 08:05:38;;;;;;;3.47;1.50;;;;;;;17.18;66.24;101701.47;4905672;28;97437;-46
2022/10/17 08:08:03;;;;;;;1.67;1.57;;;;;;;17.28;66.44;101707.47;4904254;28;97478;-46
2022/10/17 08:10:29;;;;;;;2.87;1.50;;;;;;;17.36;66.53;101700.09;4894751;28;97569;-46
2022/10/17 08:12:55;;;;;;;3.33;1.57;;;;;;;17.46;66.50;101704.09;4902877;28;97322;-47
2022/10/17 08:15:22;;;;;;;4.40;1.13;;;;;;;17.56;66.55;101704.56;4904015;28;97921;-50
2022/10/17 08:17:47;;;;;;;5.80;1.67;;;;;;;17.64;66.81;101705.53;4904152;28;97082;-47
2022/10/17 08:20:13;;;;;;;1.43;1.43;;;;;;;17.74;66.77;101707.47;4905239;28;97196;-46
2022/10/17 08:22:38;;;;;;;1.50;1.40;;;;;;;17.85;66.75;101709.41;4905206;28;109216;-46
2022/10/17 08:25:04;;;;;;;1.37;1.27;;;;;;;17.93;66.78;101711.13;4904728;28;116331;-46
2022/10/17 08:27:31;;;;;;;1.70;1.20;;;;;;;18.03;66.96;101703.22;4904726;28;97787;-46
2022/10/17 08:29:57;;;;;;;3.63;1.40;;;;;;;18.14;66.91;101710.72;4905087;28;97221;-46
2022/10/17 08:32:25;;;;;;;1.20;1.20;;;;;;;18.24;67.18;101706.34;4902197;28;116409;-46
2022/10/17 08:34:52;;;;;;;1.47;1.37;;;;;;;18.33;67.07;101705.97;4905069;28;96558;-47
2022/10/17 08:37:17;;;;;;;2.27;1.90;;;;;;;18.41;67.03;101716.03;4899067;28;97781;-47
2022/10/17 08:39:43;;;;;;;2.50;1.80;;;;;;;18.48;66.80;101707.13;4903993;28;97395;-47
2022/10/17 08:42:40;;;;;;;1.70;1.60;;;;;;;18.56;67.65;101710.88;4903940;28;97115;-46
2022/10/17 08:45:05;;;;;;;1.83;1.30;;;;;;;18.68;67.10;101714.28;4903434;28;101668;-46
2022/10/17 08:47:38;;;;;;;1.60;1.50;;;;;;;18.78;67.04;101715.44;4904645;28;97196;-46
2022/10/17 08:50:16;;;;;;;5.90;1.80;;;;;;;18.88;67.33;101699.09;4902362;28;97465;-46
2022/10/17 08:52:46;;;;;;;1.53;1.43;;;;;;;18.95;67.34;101695.72;4900358;28;97125;-47
2022/10/17 08:55:16;;;;;;;5.13;1.50;;;;;;;19.02;67.11;101686.75;4906297;28;97580;-46
2022/10/17 08:57:42;;;;;;;2.50;1.70;;;;;;;19.11;67.03;101689.19;4904099;28;97376;-47
2022/10/17 09:00:17;;;;;;;2.80;1.80;;;;;;;19.20;67.56;101692.34;4906456;28;97350;-46
2022/10/17 09:02:52;;;;;;;3.87;1.57;;;;;;;19.28;67.26;101687.69;4906323;28;97372;-47
2022/10/17 09:05:33;;;;;;;6.07;2.30;;;;;;;19.39;67.67;101689.59;4906933;28;97401;-46
2022/10/17 09:08:01;;;;;;;1.93;1.80;;;;;;;19.48;66.93;101683.63;4906096;28;97035;-46
2022/10/17 09:11:02;;;;;;;1.97;1.87;;;;;;;19.60;67.50;101689.78;4907961;28;98346;-46
2022/10/17 09:13:30;;;;;;;2.50;2.03;;;;;;;19.72;66.96;101703.06;4902184;28;102804;-46
2022/10/17 09:16:17;;;;;;;1.93;1.73;;;;;;;19.84;67.29;101700.84;4905184;28;97359;-47
2022/10/17 09:18:49;;;;;;;3.00;1.70;;;;;;;19.95;66.87;101693.03;4906309;28;97026;-47
2022/10/17 09:21:31;;;;;;;2.53;1.77;;;;;;;20.08;67.02;101692.31;4899881;28;96715;-46
2022/10/17 09:24:02;;;;;;;3.20;1.83;;;;;;;20.17;66.77;101687.09;4905729;28;100505;-46
2022/10/17 09:26:28;;;;;;;3.17;2.50;;;;;;;20.31;66.62;101687.13;4907826;28;97263;-47
2022/10/17 09:28:58;;;;;;;2.60;2.40;;;;;;;20.39;66.63;101685.97;4905503;28;96960;-47
2022/10/17 09:31:39;;;;;;;1.83;1.73;;;;;;;20.49;66.60;101675.09;4907795;28;97151;-47
2022/10/17 09:34:09;;;;;;;4.07;1.97;;;;;;;20.57;66.46;101682.31;4907276;28;100736;-47
2022/10/17 09:36:39;;;;;;;2.60;1.83;;;;;;;20.67;66.19;101686.19;4906926;28;97168;-47
2022/10/17 09:39:18;;;;;;;2.23;2.13;;;;;;;20.76;66.39;101693.38;4905153;28;97149;-47
2022/10/17 09:41:56;;;;;;;1.97;1.87;;;;;;;20.82;66.11;101694.78;4906328;28;97226;-47
2022/10/17 09:44:39;;;;;;;1.90;1.80;;;;;;;20.90;66.31;101704.03;4906022;28;97414;-47
2022/10/17 09:47:27;;;;;;;1.87;1.70;;;;;;;20.99;66.12;101696.50;4909056;28;100276;-47
2022/10/17 09:49:52;;;;;;;2.40;2.20;;;;;;;21.08;65.84;101710.09;4902267;28;97202;-47
2022/10/17 09:52:24;;;;;;;1.90;1.80;;;;;;;21.15;65.82;101703.81;4904189;28;97047;-47
2022/10/17 09:54:53;;;;;;;2.67;1.60;;;;;;;21.23;65.57;101699.06;4905746;28;100854;-48
2022/10/17 09:57:20;;;;;;;2.30;1.60;;;;;;;21.31;65.47;101708.31;4906397;28;97258;-47
2022/10/17 09:59:47;;;;;;;1.33;1.23;;;;;;;21.38;65.40;101699.97;4905622;28;100039;-48
2022/10/17 10:02:12;;;;;;;2.00;1.90;;;;;;;21.46;65.39;101694.47;4908888;28;96926;-46
2022/10/17 10:04:52;;;;;;;3.73;2.07;;;;;;;21.59;65.40;101697.22;4907179;28;97441;-51
2022/10/17 10:07:19;;;;;;;2.80;1.70;;;;;;;21.68;65.18;101693.97;4906146;28;98376;-49
2022/10/17 10:09:47;;;;;;;1.87;1.60;;;;;;;21.78;64.87;101702.63;4907238;28;97609;-45
2022/10/17 10:12:25;;;;;;;1.67;1.57;;;;;;;21.88;64.56;101707.28;4905956;28;97284;-49
2022/10/17 10:14:51;;;;;;;2.63;1.57;;;;;;;21.95;64.36;101706.56;4905866;28;97146;-48
2022/10/17 10:17:40;;;;;;;3.53;2.10;;;;;;;22.01;64.21;101701.59;4905886;28;97526;-48
2022/10/17 10:20:31;;;;;;;4.40;1.87;;;;;;;22.02;63.68;101700.28;4908100;28;96804;-46
2022/10/17 10:23:18;;;;;;;2.27;1.97;;;;;;;22.08;63.73;101708.56;4908833;28;97149;-45
2022/10/17 10:25:52;;;;;;;3.40;1.90;;;;;;;22.16;64.10;101698.94;4907040;28;100845;-46
2022/10/17 10:28:18;;;;;;;1.67;1.57;;;;;;;22.24;63.98;101698.97;4909675;28;101783;-46
2022/10/17 10:30:48;;;;;;;1.80;1.70;;;;;;;22.30;63.89;101697.53;4899988;28;97146;-48
2022/10/17 10:33:13;;;;;;;3.20;1.70;;;;;;;22.36;63.77;101703.00;4908224;28;97023;-47
2022/10/17 10:35:39;;;;;;;1.70;1.60;;;;;;;22.41;63.83;101696.47;4906555;28;97394;-45
2022/10/17 10:38:13;;;;;;;1.80;1.70;;;;;;;22.47;63.64;101704.75;4907470;28;97184;-47
2022/10/17 10:40:46;;;;;;;3.27;2.40;;;;;;;22.51;63.42;101705.91;4904828;28;96824;-48
2022/10/17 10:43:28;;;;;;;4.17;2.00;;;;;;;22.58;63.36;101704.47;4909589;28;97170;-48
2022/10/17 10:45:53;;;;;;;4.17;2.00;;;;;;;22.66;63.60;101705.28;4905268;28;97679;-46
2022/10/17 10:48:57;;;;;;;1.50;1.30;;;;;;;22.76;62.79;101693.00;4903372;28;97397;-47
2022/10/17 10:51:37;;;;;;;2.00;1.90;;;;;;;22.92;62.78;101691.00;4887884;28;96915;-49
2022/10/17 10:54:25;;;;;;;2.13;1.77;;;;;;;23.03;62.58;101694.25;4908426;28;97410;-49
2022/10/17 10:56:53;;;;;;;7.00;2.00;;;;;;;23.12;62.58;101695.78;4905564;28;102007;-45
2022/10/17 10:59:31;;;;;;;2.13;2.03;;;;;;;23.21;62.42;101705.75;4906871;28;97525;-49
2022/10/17 11:02:14;;;;;;;2.77;2.10;;;;;;;23.29;61.88;101709.31;4905643;28;97265;-46
2022/10/17 11:04:45;;;;;;;2.20;1.50;;;;;;;23.36;62.41;101720.63;4905255;28;97420;-47
2022/10/17 11:07:14;;;;;;;2.27;1.90;;;;;;;23.43;61.96;101725.53;4907049;28;97293;-46
2022/10/17 11:09:52;;;;;;;4.37;1.70;;;;;;;23.48;61.35;101727.41;4904203;28;98301;-46
2022/10/17 11:12:31;;;;;;;3.53;2.10;;;;;;;23.55;61.58;101734.34;4904561;28;97135;-47
2022/10/17 11:15:02;;;;;;;2.20;1.83;;;;;;;23.60;61.69;101730.63;4906806;28;97517;-47
2022/10/17 11:17:35;;;;;;;2.00;1.40;;;;;;;23.62;61.04;101728.00;4906042;28;103064;-47
2022/10/17 11:20:03;;;;;;;2.00;1.90;;;;;;;23.64;61.48;101720.50;4909819;28;102642;-47
2022/10/17 11:22:37;;;;;;;2.43;2.23;;;;;;;23.67;61.41;101730.66;4905674;28;97419;-45
2022/10/17 11:25:20;;;;;;;2.60;1.90;;;;;;;23.73;60.65;101730.47;4909690;28;96769;-50
2022/10/17 11:27:46;;;;;;;1.63;1.53;;;;;;;23.79;60.99;101726.16;4904160;28;101836;-47
2022/10/17 11:30:13;;;;;;;3.13;1.90;;;;;;;23.86;60.52;101719.06;4907021;28;97255;-45
2022/10/17 11:32:47;;;;;;;2.67;1.90;;;;;;;23.92;60.66;101725.25;4904200;28;97389;-48
2022/10/17 11:35:25;;;;;;;1.70;1.60;;;;;;;23.94;60.48;101719.81;4906650;28;97784;-50
2022/10/17 11:38:46;;;;;;;4.70;2.13;;;;;;;23.92;60.08;101714.00;4904599;28;102015;-49